sensor_id;sensor_type;location;lat;lon;timestamp;temperature;humidity
21312;DHT22;18076;52.154;10.570;2022-07-29T00:01:29;16.10;99.20
21312;DHT22;18076;52.154;10.570;2022-07-29T00:03:55;16.10;99.50
21312;DHT22;18076;52.154;10.570;2022-07-29T00:06:20;16.10;99.80
21312;DHT22;18076;52.154;10.570;2022-07-29T00:08:46;16.10;99.90
21312;DHT22;18076;52.154;10.570;2022-07-29T00:11:12;16.10;99.90
21312;DHT22;18076;52.154;10.570;2022-07-29T00:13:37;16.10;99.90
21312;DHT22;18076;52.154;10.570;2022-07-29T00:16:03;16.20;99.90
21312;DHT22;18076;52.154;10.570;2022-07-29T00:18:28;16.20;99.90
21312;DHT22;18076;52.154;10.570;2022-07-29T00:20:54;16.10;99.90
21312;DHT22;18076;52.154;10.570;2022-07-29T00:23:20;16.10;99.90
21312;DHT22;18076;52.154;10.570;2022-07-29T00:25:45;16.10;99.90
21312;DHT22;18076;52.154;10.570;2022-07-29T00:28:10;16.10;99.90
21312;DHT22;18076;52.154;10.570;2022-07-29T00:30:36;16.10;99.90
21312;DHT22;18076;52.154;10.570;2022-07-29T00:33:01;16.10;99.90
21312;DHT22;18076;52.154;10.570;2022-07-29T00:35:27;16.00;99.90
21312;DHT22;18076;52.154;10.570;2022-07-29T00:38:12;16.00;99.90
21312;DHT22;18076;52.154;10.570;2022-07-29T00:40:37;16.00;99.90
21312;DHT22;18076;52.154;10.570;2022-07-29T00:43:03;16.10;99.90
21312;DHT22;18076;52.154;10.570;2022-07-29T00:45:28;16.10;99.90
21312;DHT22;18076;52.154;10.570;2022-07-29T00:47:55;16.10;99.90
21312;DHT22;18076;52.154;10.570;2022-07-29T00:50:21;16.00;99.90
21312;DHT22;18076;52.154;10.570;2022-07-29T00:52:46;16.00;99.90
21312;DHT22;18076;52.154;10.570;2022-07-29T00:55:13;16.00;99.90
21312;DHT22;18076;52.154;10.570;2022-07-29T00:57:39;16.00;99.90
21312;DHT22;18076;52.154;10.570;2022-07-29T01:00:06;15.90;99.90
21312;DHT22;18076;52.154;10.570;2022-07-29T01:02:32;15.90;99.90
21312;DHT22;18076;52.154;10.570;2022-07-29T01:04:58;15.90;99.90
21312;DHT22;18076;52.154;10.570;2022-07-29T01:07:24;15.90;99.90
21312;DHT22;18076;52.154;10.570;2022-07-29T01:09:50;16.00;99.90
21312;DHT22;18076;52.154;10.570;2022-07-29T01:12:18;16.00;99.90
21312;DHT22;18076;52.154;10.570;2022-07-29T01:14:45;16.10;99.90
21312;DHT22;18076;52.154;10.570;2022-07-29T01:17:20;16.10;99.90
21312;DHT22;18076;52.154;10.570;2022-07-29T01:27:32;16.20;99.90
21312;DHT22;18076;52.154;10.570;2022-07-29T01:30:02;16.20;99.90
21312;DHT22;18076;52.154;10.570;2022-07-29T01:32:29;16.20;99.90
21312;DHT22;18076;52.154;10.570;2022-07-29T01:38:02;16.10;99.90
21312;DHT22;18076;52.154;10.570;2022-07-29T01:40:20;16.20;99.90
21312;DHT22;18076;52.154;10.570;2022-07-29T01:42:49;16.10;99.90
21312;DHT22;18076;52.154;10.570;2022-07-29T01:45:17;16.10;99.90
21312;DHT22;18076;52.154;10.570;2022-07-29T01:47:58;16.20;99.90
21312;DHT22;18076;52.154;10.570;2022-07-29T01:50:35;16.10;99.90
21312;DHT22;18076;52.154;10.570;2022-07-29T01:53:02;16.20;99.90
21312;DHT22;18076;52.154;10.570;2022-07-29T01:55:29;16.10;99.90
21312;DHT22;18076;52.154;10.570;2022-07-29T01:57:56;16.10;99.90
21312;DHT22;18076;52.154;10.570;2022-07-29T02:00:22;16.00;99.90
21312;DHT22;18076;52.154;10.570;2022-07-29T02:02:48;16.00;99.90
21312;DHT22;18076;52.154;10.570;2022-07-29T02:05:15;15.90;99.90
21312;DHT22;18076;52.154;10.570;2022-07-29T02:07:42;15.90;99.90
21312;DHT22;18076;52.154;10.570;2022-07-29T02:10:09;15.90;99.90
21312;DHT22;18076;52.154;10.570;2022-07-29T02:12:35;15.90;99.90
21312;DHT22;18076;52.154;10.570;2022-07-29T02:15:02;15.90;99.90
21312;DHT22;18076;52.154;10.570;2022-07-29T02:18:28;15.90;99.90
21312;DHT22;18076;52.154;10.570;2022-07-29T02:20:23;15.80;99.90
21312;DHT22;18076;52.154;10.570;2022-07-29T02:22:50;15.80;99.90
21312;DHT22;18076;52.154;10.570;2022-07-29T02:25:16;15.70;99.90
21312;DHT22;18076;52.154;10.570;2022-07-29T02:27:42;15.70;99.90
21312;DHT22;18076;52.154;10.570;2022-07-29T02:30:08;15.60;99.90
21312;DHT22;18076;52.154;10.570;2022-07-29T02:32:35;15.60;99.90
21312;DHT22;18076;52.154;10.570;2022-07-29T02:35:01;15.60;99.90
21312;DHT22;18076;52.154;10.570;2022-07-29T02:37:27;15.60;99.90
21312;DHT22;18076;52.154;10.570;2022-07-29T02:39:54;15.70;99.90
21312;DHT22;18076;52.154;10.570;2022-07-29T02:42:21;15.70;99.90
21312;DHT22;18076;52.154;10.570;2022-07-29T02:44:47;15.60;99.90
21312;DHT22;18076;52.154;10.570;2022-07-29T02:47:20;15.60;99.90
21312;DHT22;18076;52.154;10.570;2022-07-29T02:49:53;15.60;99.90
21312;DHT22;18076;52.154;10.570;2022-07-29T02:52:27;15.60;99.90
21312;DHT22;18076;52.154;10.570;2022-07-29T02:57:22;15.50;99.90
21312;DHT22;18076;52.154;10.570;2022-07-29T02:59:51;15.50;99.90
21312;DHT22;18076;52.154;10.570;2022-07-29T03:02:18;15.40;99.90
21312;DHT22;18076;52.154;10.570;2022-07-29T03:04:43;15.40;99.90
21312;DHT22;18076;52.154;10.570;2022-07-29T03:07:10;15.40;99.90
21312;DHT22;18076;52.154;10.570;2022-07-29T03:09:38;15.40;99.90
21312;DHT22;18076;52.154;10.570;2022-07-29T03:12:04;15.50;99.90
21312;DHT22;18076;52.154;10.570;2022-07-29T03:14:30;15.40;99.90
21312;DHT22;18076;52.154;10.570;2022-07-29T03:16:56;15.50;99.90
21312;DHT22;18076;52.154;10.570;2022-07-29T03:19:22;15.50;99.90
21312;DHT22;18076;52.154;10.570;2022-07-29T03:21:48;15.60;99.90
21312;DHT22;18076;52.154;10.570;2022-07-29T03:24:30;15.60;99.90
21312;DHT22;18076;52.154;10.570;2022-07-29T03:26:56;15.60;99.90
21312;DHT22;18076;52.154;10.570;2022-07-29T03:29:21;15.60;99.90
21312;DHT22;18076;52.154;10.570;2022-07-29T03:31:47;15.50;99.90
21312;DHT22;18076;52.154;10.570;2022-07-29T03:34:12;15.50;99.90
21312;DHT22;18076;52.154;10.570;2022-07-29T03:36:38;15.50;99.90
21312;DHT22;18076;52.154;10.570;2022-07-29T03:39:04;15.50;99.90
21312;DHT22;18076;52.154;10.570;2022-07-29T03:41:30;15.50;99.90
21312;DHT22;18076;52.154;10.570;2022-07-29T03:43:56;15.50;99.90
21312;DHT22;18076;52.154;10.570;2022-07-29T03:46:23;15.40;99.90
21312;DHT22;18076;52.154;10.570;2022-07-29T03:48:50;15.40;99.90
21312;DHT22;18076;52.154;10.570;2022-07-29T03:51:17;15.30;99.90
21312;DHT22;18076;52.154;10.570;2022-07-29T03:53:43;15.30;99.90
21312;DHT22;18076;52.154;10.570;2022-07-29T03:56:08;15.30;99.90
21312;DHT22;18076;52.154;10.570;2022-07-29T03:58:35;15.30;99.90
21312;DHT22;18076;52.154;10.570;2022-07-29T04:01:01;15.40;99.90
21312;DHT22;18076;52.154;10.570;2022-07-29T04:03:27;15.40;99.90
21312;DHT22;18076;52.154;10.570;2022-07-29T04:05:59;15.40;99.90
21312;DHT22;18076;52.154;10.570;2022-07-29T04:08:25;15.30;99.90
21312;DHT22;18076;52.154;10.570;2022-07-29T04:10:50;15.30;99.90
21312;DHT22;18076;52.154;10.570;2022-07-29T04:13:18;15.30;99.90
21312;DHT22;18076;52.154;10.570;2022-07-29T04:15:43;15.20;99.90
21312;DHT22;18076;52.154;10.570;2022-07-29T04:18:09;15.20;99.90
21312;DHT22;18076;52.154;10.570;2022-07-29T04:20:35;15.20;99.90
21312;DHT22;18076;52.154;10.570;2022-07-29T04:23:00;15.30;99.90
21312;DHT22;18076;52.154;10.570;2022-07-29T04:25:26;15.40;99.90
21312;DHT22;18076;52.154;10.570;2022-07-29T04:27:51;15.60;99.90
21312;DHT22;18076;52.154;10.570;2022-07-29T04:30:25;15.70;99.90
21312;DHT22;18076;52.154;10.570;2022-07-29T04:32:51;15.70;99.90
21312;DHT22;18076;52.154;10.570;2022-07-29T04:35:17;15.80;99.90
21312;DHT22;18076;52.154;10.570;2022-07-29T04:37:43;15.80;99.90
21312;DHT22;18076;52.154;10.570;2022-07-29T04:40:09;15.90;99.90
21312;DHT22;18076;52.154;10.570;2022-07-29T04:42:34;16.00;99.90
21312;DHT22;18076;52.154;10.570;2022-07-29T04:45:00;16.00;99.90
21312;DHT22;18076;52.154;10.570;2022-07-29T04:47:25;16.10;99.90
21312;DHT22;18076;52.154;10.570;2022-07-29T04:49:51;16.10;99.90
21312;DHT22;18076;52.154;10.570;2022-07-29T04:52:17;16.20;99.90
21312;DHT22;18076;52.154;10.570;2022-07-29T04:54:42;16.30;99.90
21312;DHT22;18076;52.154;10.570;2022-07-29T04:57:08;16.30;99.90
21312;DHT22;18076;52.154;10.570;2022-07-29T04:59:33;16.40;99.90
21312;DHT22;18076;52.154;10.570;2022-07-29T05:01:59;16.50;99.90
21312;DHT22;18076;52.154;10.570;2022-07-29T05:04:24;16.60;99.90
21312;DHT22;18076;52.154;10.570;2022-07-29T05:06:50;16.60;99.90
21312;DHT22;18076;52.154;10.570;2022-07-29T05:09:15;16.70;99.90
21312;DHT22;18076;52.154;10.570;2022-07-29T05:11:41;16.80;99.90
21312;DHT22;18076;52.154;10.570;2022-07-29T05:14:06;16.80;99.90
21312;DHT22;18076;52.154;10.570;2022-07-29T05:16:32;16.90;99.90
21312;DHT22;18076;52.154;10.570;2022-07-29T05:18:58;16.90;99.90
21312;DHT22;18076;52.154;10.570;2022-07-29T05:21:24;17.00;99.90
21312;DHT22;18076;52.154;10.570;2022-07-29T05:23:49;17.00;99.90
21312;DHT22;18076;52.154;10.570;2022-07-29T05:26:15;17.00;99.90
21312;DHT22;18076;52.154;10.570;2022-07-29T05:28:41;17.10;99.90
21312;DHT22;18076;52.154;10.570;2022-07-29T05:31:06;17.10;99.90
21312;DHT22;18076;52.154;10.570;2022-07-29T05:33:32;17.20;99.90
21312;DHT22;18076;52.154;10.570;2022-07-29T05:35:57;17.20;99.90
21312;DHT22;18076;52.154;10.570;2022-07-29T05:38:23;17.30;99.90
21312;DHT22;18076;52.154;10.570;2022-07-29T05:40:48;17.40;99.90
21312;DHT22;18076;52.154;10.570;2022-07-29T05:43:14;17.50;99.90
21312;DHT22;18076;52.154;10.570;2022-07-29T05:45:39;17.60;99.90
21312;DHT22;18076;52.154;10.570;2022-07-29T05:48:05;17.60;99.90
21312;DHT22;18076;52.154;10.570;2022-07-29T05:50:31;17.60;99.90
21312;DHT22;18076;52.154;10.570;2022-07-29T05:52:56;17.60;99.90
21312;DHT22;18076;52.154;10.570;2022-07-29T05:55:21;17.60;99.90
21312;DHT22;18076;52.154;10.570;2022-07-29T05:57:47;17.70;99.90
21312;DHT22;18076;52.154;10.570;2022-07-29T06:00:13;17.80;99.90
21312;DHT22;18076;52.154;10.570;2022-07-29T06:02:38;17.80;99.90
21312;DHT22;18076;52.154;10.570;2022-07-29T06:05:04;17.90;99.90
21312;DHT22;18076;52.154;10.570;2022-07-29T06:07:29;17.80;99.90
21312;DHT22;18076;52.154;10.570;2022-07-29T06:09:55;17.80;99.90
21312;DHT22;18076;52.154;10.570;2022-07-29T06:12:21;17.80;99.90
21312;DHT22;18076;52.154;10.570;2022-07-29T06:14:47;17.80;99.90
21312;DHT22;18076;52.154;10.570;2022-07-29T06:17:12;17.90;99.90
21312;DHT22;18076;52.154;10.570;2022-07-29T06:19:38;17.90;99.90
21312;DHT22;18076;52.154;10.570;2022-07-29T06:22:03;18.00;99.90
21312;DHT22;18076;52.154;10.570;2022-07-29T06:24:29;18.10;99.90
21312;DHT22;18076;52.154;10.570;2022-07-29T06:26:54;18.20;99.90
21312;DHT22;18076;52.154;10.570;2022-07-29T06:29:20;18.30;99.90
21312;DHT22;18076;52.154;10.570;2022-07-29T06:31:45;18.50;99.90
21312;DHT22;18076;52.154;10.570;2022-07-29T06:34:11;18.70;99.90
21312;DHT22;18076;52.154;10.570;2022-07-29T06:36:38;18.80;99.90
21312;DHT22;18076;52.154;10.570;2022-07-29T06:39:05;18.90;99.90
21312;DHT22;18076;52.154;10.570;2022-07-29T06:41:31;19.00;99.90
21312;DHT22;18076;52.154;10.570;2022-07-29T06:43:57;19.00;99.90
21312;DHT22;18076;52.154;10.570;2022-07-29T06:46:22;19.00;99.90
21312;DHT22;18076;52.154;10.570;2022-07-29T06:48:48;19.10;99.90
21312;DHT22;18076;52.154;10.570;2022-07-29T06:51:13;19.20;99.90
21312;DHT22;18076;52.154;10.570;2022-07-29T06:53:39;19.20;99.90
21312;DHT22;18076;52.154;10.570;2022-07-29T06:56:05;19.10;99.90
21312;DHT22;18076;52.154;10.570;2022-07-29T06:58:33;19.10;99.90
21312;DHT22;18076;52.154;10.570;2022-07-29T07:01:00;19.40;99.90
21312;DHT22;18076;52.154;10.570;2022-07-29T07:03:26;19.80;99.90
21312;DHT22;18076;52.154;10.570;2022-07-29T07:05:52;20.20;99.90
21312;DHT22;18076;52.154;10.570;2022-07-29T07:08:19;20.60;99.90
21312;DHT22;18076;52.154;10.570;2022-07-29T07:10:44;20.90;99.90
21312;DHT22;18076;52.154;10.570;2022-07-29T07:13:10;21.40;99.90
21312;DHT22;18076;52.154;10.570;2022-07-29T07:15:36;21.70;99.90
21312;DHT22;18076;52.154;10.570;2022-07-29T07:18:02;22.00;99.90
21312;DHT22;18076;52.154;10.570;2022-07-29T07:20:28;22.10;99.90
21312;DHT22;18076;52.154;10.570;2022-07-29T07:22:54;22.20;99.90
21312;DHT22;18076;52.154;10.570;2022-07-29T07:25:19;22.20;99.90
21312;DHT22;18076;52.154;10.570;2022-07-29T07:27:45;22.30;99.90
21312;DHT22;18076;52.154;10.570;2022-07-29T07:30:11;22.30;99.90
21312;DHT22;18076;52.154;10.570;2022-07-29T07:32:37;22.30;99.90
21312;DHT22;18076;52.154;10.570;2022-07-29T07:35:03;22.40;99.90
21312;DHT22;18076;52.154;10.570;2022-07-29T07:37:29;22.40;99.90
21312;DHT22;18076;52.154;10.570;2022-07-29T07:39:54;22.60;99.50
21312;DHT22;18076;52.154;10.570;2022-07-29T07:42:20;22.70;99.10
21312;DHT22;18076;52.154;10.570;2022-07-29T07:44:45;22.90;98.70
21312;DHT22;18076;52.154;10.570;2022-07-29T07:47:11;23.20;97.70
21312;DHT22;18076;52.154;10.570;2022-07-29T07:49:37;23.50;97.70
21312;DHT22;18076;52.154;10.570;2022-07-29T07:52:03;23.50;96.70
21312;DHT22;18076;52.154;10.570;2022-07-29T07:54:28;23.40;96.00
21312;DHT22;18076;52.154;10.570;2022-07-29T07:56:54;23.10;96.10
21312;DHT22;18076;52.154;10.570;2022-07-29T07:59:20;23.00;96.50
21312;DHT22;18076;52.154;10.570;2022-07-29T08:01:45;23.00;96.30
21312;DHT22;18076;52.154;10.570;2022-07-29T08:04:11;23.20;96.50
21312;DHT22;18076;52.154;10.570;2022-07-29T08:06:36;23.40;95.90
21312;DHT22;18076;52.154;10.570;2022-07-29T08:09:03;23.40;95.70
21312;DHT22;18076;52.154;10.570;2022-07-29T08:11:29;23.70;95.80
21312;DHT22;18076;52.154;10.570;2022-07-29T08:13:54;23.80;94.90
21312;DHT22;18076;52.154;10.570;2022-07-29T08:16:20;23.90;94.60
21312;DHT22;18076;52.154;10.570;2022-07-29T08:18:46;23.90;94.60
21312;DHT22;18076;52.154;10.570;2022-07-29T08:21:12;23.80;93.90
21312;DHT22;18076;52.154;10.570;2022-07-29T08:23:37;23.60;93.70
21312;DHT22;18076;52.154;10.570;2022-07-29T08:26:11;23.50;93.80
21312;DHT22;18076;52.154;10.570;2022-07-29T08:28:37;23.30;93.80
21312;DHT22;18076;52.154;10.570;2022-07-29T08:31:03;23.20;93.70
21312;DHT22;18076;52.154;10.570;2022-07-29T08:33:28;23.00;93.80
21312;DHT22;18076;52.154;10.570;2022-07-29T08:35:54;23.00;94.00
21312;DHT22;18076;52.154;10.570;2022-07-29T08:38:19;23.10;94.20
21312;DHT22;18076;52.154;10.570;2022-07-29T08:40:45;23.10;93.80
21312;DHT22;18076;52.154;10.570;2022-07-29T08:43:11;23.20;94.30
21312;DHT22;18076;52.154;10.570;2022-07-29T08:45:43;23.50;93.80
21312;DHT22;18076;52.154;10.570;2022-07-29T08:48:11;24.00;93.70
21312;DHT22;18076;52.154;10.570;2022-07-29T08:50:36;24.30;92.80
21312;DHT22;18076;52.154;10.570;2022-07-29T08:53:03;24.50;92.70
21312;DHT22;18076;52.154;10.570;2022-07-29T08:55:28;24.50;92.80
21312;DHT22;18076;52.154;10.570;2022-07-29T08:57:55;24.70;92.40
21312;DHT22;18076;52.154;10.570;2022-07-29T09:00:21;25.00;91.80
21312;DHT22;18076;52.154;10.570;2022-07-29T09:02:47;25.00;91.30
21312;DHT22;18076;52.154;10.570;2022-07-29T09:05:17;25.20;91.10
21312;DHT22;18076;52.154;10.570;2022-07-29T09:07:42;25.40;91.10
21312;DHT22;18076;52.154;10.570;2022-07-29T09:10:09;25.40;90.90
21312;DHT22;18076;52.154;10.570;2022-07-29T09:12:35;25.40;90.30
21312;DHT22;18076;52.154;10.570;2022-07-29T09:15:03;25.50;90.00
21312;DHT22;18076;52.154;10.570;2022-07-29T09:17:44;25.60;90.70
21312;DHT22;18076;52.154;10.570;2022-07-29T09:20:14;26.20;90.70
21312;DHT22;18076;52.154;10.570;2022-07-29T09:22:40;26.70;88.80
21312;DHT22;18076;52.154;10.570;2022-07-29T09:25:06;26.70;86.60
21312;DHT22;18076;52.154;10.570;2022-07-29T09:27:31;26.70;86.70
21312;DHT22;18076;52.154;10.570;2022-07-29T09:29:59;26.90;86.80
21312;DHT22;18076;52.154;10.570;2022-07-29T09:32:25;27.00;85.00
21312;DHT22;18076;52.154;10.570;2022-07-29T09:35:13;26.80;85.10
21312;DHT22;18076;52.154;10.570;2022-07-29T09:37:37;27.30;85.70
21312;DHT22;18076;52.154;10.570;2022-07-29T09:40:10;28.10;84.60
21312;DHT22;18076;52.154;10.570;2022-07-29T09:42:36;28.60;82.00
21312;DHT22;18076;52.154;10.570;2022-07-29T09:45:02;28.90;80.90
21312;DHT22;18076;52.154;10.570;2022-07-29T09:47:40;29.20;80.70
21312;DHT22;18076;52.154;10.570;2022-07-29T09:50:05;29.50;78.50
21312;DHT22;18076;52.154;10.570;2022-07-29T09:52:31;29.40;77.40
21312;DHT22;18076;52.154;10.570;2022-07-29T09:55:06;29.30;77.80
21312;DHT22;18076;52.154;10.570;2022-07-29T09:57:32;29.50;77.70
21312;DHT22;18076;52.154;10.570;2022-07-29T10:00:08;29.10;76.20
21312;DHT22;18076;52.154;10.570;2022-07-29T10:02:35;28.90;76.70
21312;DHT22;18076;52.154;10.570;2022-07-29T10:05:02;28.50;77.00
21312;DHT22;18076;52.154;10.570;2022-07-29T10:07:44;28.60;77.90
21312;DHT22;18076;52.154;10.570;2022-07-29T10:10:10;28.70;76.70
21312;DHT22;18076;52.154;10.570;2022-07-29T10:12:38;28.70;76.90
21312;DHT22;18076;52.154;10.570;2022-07-29T10:15:13;28.90;76.40
21312;DHT22;18076;52.154;10.570;2022-07-29T10:17:40;29.00;75.20
21312;DHT22;18076;52.154;10.570;2022-07-29T10:20:06;29.10;75.20
21312;DHT22;18076;52.154;10.570;2022-07-29T10:22:32;29.20;74.80
21312;DHT22;18076;52.154;10.570;2022-07-29T10:24:58;29.30;73.40
21312;DHT22;18076;52.154;10.570;2022-07-29T10:27:24;29.40;73.40
21312;DHT22;18076;52.154;10.570;2022-07-29T10:29:50;29.30;72.30
21312;DHT22;18076;52.154;10.570;2022-07-29T10:42:52;28.90;72.50
21312;DHT22;18076;52.154;10.570;2022-07-29T10:45:18;28.80;72.80
21312;DHT22;18076;52.154;10.570;2022-07-29T10:47:44;28.80;73.10
21312;DHT22;18076;52.154;10.570;2022-07-29T10:50:10;28.50;70.90
21312;DHT22;18076;52.154;10.570;2022-07-29T10:55:31;27.90;70.80
21312;DHT22;18076;52.154;10.570;2022-07-29T10:58:14;27.50;71.70
21312;DHT22;18076;52.154;10.570;2022-07-29T11:00:40;27.40;72.40
21312;DHT22;18076;52.154;10.570;2022-07-29T11:03:06;27.30;71.80
21312;DHT22;18076;52.154;10.570;2022-07-29T11:05:51;27.10;71.90
21312;DHT22;18076;52.154;10.570;2022-07-29T11:08:17;27.00;71.60
21312;DHT22;18076;52.154;10.570;2022-07-29T11:10:49;26.80;71.90
21312;DHT22;18076;52.154;10.570;2022-07-29T11:15:59;26.60;73.00
21312;DHT22;18076;52.154;10.570;2022-07-29T11:18:25;26.50;74.10
21312;DHT22;18076;52.154;10.570;2022-07-29T11:20:51;26.50;73.50
21312;DHT22;18076;52.154;10.570;2022-07-29T11:23:20;26.40;73.50
21312;DHT22;18076;52.154;10.570;2022-07-29T11:28:30;26.30;74.90
21312;DHT22;18076;52.154;10.570;2022-07-29T11:30:55;26.20;75.20
21312;DHT22;18076;52.154;10.570;2022-07-29T11:36:12;26.40;75.00
21312;DHT22;18076;52.154;10.570;2022-07-29T11:38:38;26.50;75.40
21312;DHT22;18076;52.154;10.570;2022-07-29T11:43:48;26.70;75.70
21312;DHT22;18076;52.154;10.570;2022-07-29T11:46:14;26.60;75.10
21312;DHT22;18076;52.154;10.570;2022-07-29T11:48:41;26.60;75.30
21312;DHT22;18076;52.154;10.570;2022-07-29T11:51:11;26.60;75.20
21312;DHT22;18076;52.154;10.570;2022-07-29T11:53:37;26.60;75.20
21312;DHT22;18076;52.154;10.570;2022-07-29T11:56:02;26.70;76.00
21312;DHT22;18076;52.154;10.570;2022-07-29T11:58:29;26.80;75.00
21312;DHT22;18076;52.154;10.570;2022-07-29T12:00:54;26.90;75.50
21312;DHT22;18076;52.154;10.570;2022-07-29T12:03:24;26.80;74.10
21312;DHT22;18076;52.154;10.570;2022-07-29T12:05:51;26.80;74.20
21312;DHT22;18076;52.154;10.570;2022-07-29T12:08:18;26.70;72.60
21312;DHT22;18076;52.154;10.570;2022-07-29T12:10:45;26.60;72.10
21312;DHT22;18076;52.154;10.570;2022-07-29T12:13:12;26.60;71.80
21312;DHT22;18076;52.154;10.570;2022-07-29T12:15:37;26.50;72.20
21312;DHT22;18076;52.154;10.570;2022-07-29T12:18:17;26.50;72.70
21312;DHT22;18076;52.154;10.570;2022-07-29T12:20:43;26.40;72.20
21312;DHT22;18076;52.154;10.570;2022-07-29T12:23:09;26.40;72.10
21312;DHT22;18076;52.154;10.570;2022-07-29T12:25:37;26.30;72.20
21312;DHT22;18076;52.154;10.570;2022-07-29T12:28:04;26.30;71.90
21312;DHT22;18076;52.154;10.570;2022-07-29T12:30:37;26.40;71.20
21312;DHT22;18076;52.154;10.570;2022-07-29T12:35:42;26.40;71.50
21312;DHT22;18076;52.154;10.570;2022-07-29T12:38:10;26.40;70.90
21312;DHT22;18076;52.154;10.570;2022-07-29T12:40:36;26.40;71.10
21312;DHT22;18076;52.154;10.570;2022-07-29T12:45:31;26.40;70.90
21312;DHT22;18076;52.154;10.570;2022-07-29T12:47:56;26.50;71.00
21312;DHT22;18076;52.154;10.570;2022-07-29T12:50:22;26.40;70.60
21312;DHT22;18076;52.154;10.570;2022-07-29T12:52:48;26.30;70.50
21312;DHT22;18076;52.154;10.570;2022-07-29T12:55:13;26.30;69.90
21312;DHT22;18076;52.154;10.570;2022-07-29T12:57:46;26.30;71.00
21312;DHT22;18076;52.154;10.570;2022-07-29T13:00:12;26.40;71.10
21312;DHT22;18076;52.154;10.570;2022-07-29T13:02:39;26.60;71.10
21312;DHT22;18076;52.154;10.570;2022-07-29T13:05:06;26.60;70.40
21312;DHT22;18076;52.154;10.570;2022-07-29T13:07:32;26.60;69.90
21312;DHT22;18076;52.154;10.570;2022-07-29T13:10:10;26.60;70.40
21312;DHT22;18076;52.154;10.570;2022-07-29T13:12:36;26.60;69.80
21312;DHT22;18076;52.154;10.570;2022-07-29T13:15:11;26.70;70.50
21312;DHT22;18076;52.154;10.570;2022-07-29T13:17:40;26.70;70.00
21312;DHT22;18076;52.154;10.570;2022-07-29T13:20:08;26.70;70.00
21312;DHT22;18076;52.154;10.570;2022-07-29T13:22:37;26.80;69.90
21312;DHT22;18076;52.154;10.570;2022-07-29T13:25:03;26.90;69.50
21312;DHT22;18076;52.154;10.570;2022-07-29T13:27:29;27.00;70.50
21312;DHT22;18076;52.154;10.570;2022-07-29T13:29:56;27.10;69.30
21312;DHT22;18076;52.154;10.570;2022-07-29T13:32:23;27.30;69.40
21312;DHT22;18076;52.154;10.570;2022-07-29T13:34:48;27.40;68.70
21312;DHT22;18076;52.154;10.570;2022-07-29T13:37:14;27.40;69.60
21312;DHT22;18076;52.154;10.570;2022-07-29T13:39:40;27.50;68.40
21312;DHT22;18076;52.154;10.570;2022-07-29T13:42:06;27.50;68.90
21312;DHT22;18076;52.154;10.570;2022-07-29T13:44:31;27.80;68.90
21312;DHT22;18076;52.154;10.570;2022-07-29T13:46:57;28.20;67.80
21312;DHT22;18076;52.154;10.570;2022-07-29T13:49:24;28.30;66.70
21312;DHT22;18076;52.154;10.570;2022-07-29T13:51:49;28.40;66.90
21312;DHT22;18076;52.154;10.570;2022-07-29T13:54:15;28.40;67.80
21312;DHT22;18076;52.154;10.570;2022-07-29T13:56:41;28.40;66.60
21312;DHT22;18076;52.154;10.570;2022-07-29T13:59:06;28.40;66.20
21312;DHT22;18076;52.154;10.570;2022-07-29T14:01:33;28.20;65.10
21312;DHT22;18076;52.154;10.570;2022-07-29T14:03:59;28.10;66.10
21312;DHT22;18076;52.154;10.570;2022-07-29T14:06:24;27.90;66.70
21312;DHT22;18076;52.154;10.570;2022-07-29T14:08:50;27.90;66.60
21312;DHT22;18076;52.154;10.570;2022-07-29T14:11:15;27.70;66.20
21312;DHT22;18076;52.154;10.570;2022-07-29T14:13:41;27.60;66.30
21312;DHT22;18076;52.154;10.570;2022-07-29T14:16:06;27.60;67.30
21312;DHT22;18076;52.154;10.570;2022-07-29T14:18:32;27.70;67.20
21312;DHT22;18076;52.154;10.570;2022-07-29T14:20:58;27.60;67.30
21312;DHT22;18076;52.154;10.570;2022-07-29T14:23:23;27.60;67.80
21312;DHT22;18076;52.154;10.570;2022-07-29T14:25:49;27.60;67.40
21312;DHT22;18076;52.154;10.570;2022-07-29T14:28:14;27.50;67.90
21312;DHT22;18076;52.154;10.570;2022-07-29T14:30:40;27.50;68.20
21312;DHT22;18076;52.154;10.570;2022-07-29T14:33:06;27.50;68.70
21312;DHT22;18076;52.154;10.570;2022-07-29T14:35:31;27.40;68.80
21312;DHT22;18076;52.154;10.570;2022-07-29T14:37:57;27.40;68.50
21312;DHT22;18076;52.154;10.570;2022-07-29T14:40:22;27.40;68.20
21312;DHT22;18076;52.154;10.570;2022-07-29T14:42:48;27.40;69.10
21312;DHT22;18076;52.154;10.570;2022-07-29T14:45:14;27.40;68.40
21312;DHT22;18076;52.154;10.570;2022-07-29T14:47:39;27.40;68.60
21312;DHT22;18076;52.154;10.570;2022-07-29T14:50:06;27.30;69.40
21312;DHT22;18076;52.154;10.570;2022-07-29T14:52:31;27.40;69.70
21312;DHT22;18076;52.154;10.570;2022-07-29T14:54:57;27.40;69.10
21312;DHT22;18076;52.154;10.570;2022-07-29T14:57:23;27.30;68.40
21312;DHT22;18076;52.154;10.570;2022-07-29T14:59:48;27.40;68.40
21312;DHT22;18076;52.154;10.570;2022-07-29T15:02:14;27.30;68.70
21312;DHT22;18076;52.154;10.570;2022-07-29T15:04:39;27.30;69.20
21312;DHT22;18076;52.154;10.570;2022-07-29T15:07:05;27.40;69.80
21312;DHT22;18076;52.154;10.570;2022-07-29T15:09:31;27.40;69.00
21312;DHT22;18076;52.154;10.570;2022-07-29T15:11:56;27.20;68.90
21312;DHT22;18076;52.154;10.570;2022-07-29T15:14:22;27.30;69.40
21312;DHT22;18076;52.154;10.570;2022-07-29T15:16:47;27.30;69.30
21312;DHT22;18076;52.154;10.570;2022-07-29T15:19:13;27.40;69.40
21312;DHT22;18076;52.154;10.570;2022-07-29T15:21:38;27.40;69.00
21312;DHT22;18076;52.154;10.570;2022-07-29T15:24:04;27.40;69.70
21312;DHT22;18076;52.154;10.570;2022-07-29T15:26:29;27.50;69.20
21312;DHT22;18076;52.154;10.570;2022-07-29T15:28:55;27.50;69.50
21312;DHT22;18076;52.154;10.570;2022-07-29T15:31:21;27.50;68.80
21312;DHT22;18076;52.154;10.570;2022-07-29T15:33:47;27.60;69.30
21312;DHT22;18076;52.154;10.570;2022-07-29T15:36:12;27.60;69.10
21312;DHT22;18076;52.154;10.570;2022-07-29T15:38:38;27.60;69.10
21312;DHT22;18076;52.154;10.570;2022-07-29T15:41:05;27.70;69.00
21312;DHT22;18076;52.154;10.570;2022-07-29T15:43:31;27.60;68.90
21312;DHT22;18076;52.154;10.570;2022-07-29T15:45:57;27.50;68.70
21312;DHT22;18076;52.154;10.570;2022-07-29T15:48:41;27.50;69.10
21312;DHT22;18076;52.154;10.570;2022-07-29T15:51:07;27.50;69.40
21312;DHT22;18076;52.154;10.570;2022-07-29T15:53:32;27.60;69.30
21312;DHT22;18076;52.154;10.570;2022-07-29T15:55:58;27.60;69.20